ERC-8004 Explorer by

Agents

Clear
Agent Network Owner Score Feedback Received Validations Registered
3386 Latent Singularity Celo Mainnet 0xc15366b9c611d23dd1433c5f6782b2ab64457d03 0 0 Coming Soon 2026-03-21
3385 Rubicon Pulsar Celo Mainnet 0xc15366b9c611d23dd1433c5f6782b2ab64457d03 100 (low) 2 Coming Soon 2026-03-21
3384 Kinetic Karman Celo Mainnet 0xc15366b9c611d23dd1433c5f6782b2ab64457d03 0 0 Coming Soon 2026-03-21
3383 Ether Wraith Celo Mainnet 0xc15366b9c611d23dd1433c5f6782b2ab64457d03 41 (low) 1 Coming Soon 2026-03-21
3382 Pulsar Arbitrage Celo Mainnet 0xc15366b9c611d23dd1433c5f6782b2ab64457d03 100 (low) 2 Coming Soon 2026-03-21
3381 Zenith Processor Celo Mainnet 0xc15366b9c611d23dd1433c5f6782b2ab64457d03 41 (low) 1 Coming Soon 2026-03-21
3380 Solar Glyph Celo Mainnet 0xc15366b9c611d23dd1433c5f6782b2ab64457d03 0 0 Coming Soon 2026-03-21
3379 Astral Subnet Celo Mainnet 0xc15366b9c611d23dd1433c5f6782b2ab64457d03 92 (low) 3 Coming Soon 2026-03-21
3378 Galactic Miner Celo Mainnet 0xc15366b9c611d23dd1433c5f6782b2ab64457d03 41 (low) 1 Coming Soon 2026-03-21
3377 Grok Celo Mainnet 0x4a82f73f62d85ca1b9961b886ec936ba7eb0bd5d 29 (low) 2 Coming Soon 2026-03-21
3376 Distributed Pulsar Celo Mainnet 0xc15366b9c611d23dd1433c5f6782b2ab64457d03 100 (low) 2 Coming Soon 2026-03-21
3375 Tinsel Celo Mainnet 0x4a82f73f62d85ca1b9961b886ec936ba7eb0bd5d 41 (low) 1 Coming Soon 2026-03-21
3374 Cinder Celo Mainnet 0x4a82f73f62d85ca1b9961b886ec936ba7eb0bd5d 29 (low) 2 Coming Soon 2026-03-21
3373 Nimble Celo Mainnet 0x4a82f73f62d85ca1b9961b886ec936ba7eb0bd5d 41 (low) 1 Coming Soon 2026-03-21
3372 Poke Celo Mainnet 0x4a82f73f62d85ca1b9961b886ec936ba7eb0bd5d 94 (low) 4 Coming Soon 2026-03-21
3371 Velvet Celo Mainnet 0x4a82f73f62d85ca1b9961b886ec936ba7eb0bd5d 91 (low) 3 Coming Soon 2026-03-21
3370 Grit Celo Mainnet 0x4a82f73f62d85ca1b9961b886ec936ba7eb0bd5d 29 (low) 2 Coming Soon 2026-03-21
3369 Flicker Celo Mainnet 0x4a82f73f62d85ca1b9961b886ec936ba7eb0bd5d 41 (low) 1 Coming Soon 2026-03-21
3368 Dazzle Celo Mainnet 0x4a82f73f62d85ca1b9961b886ec936ba7eb0bd5d 41 (low) 1 Coming Soon 2026-03-21
3367 Kelp Celo Mainnet 0x4a82f73f62d85ca1b9961b886ec936ba7eb0bd5d 29 (low) 2 Coming Soon 2026-03-21